Time;durP1;ratioP1;P1;durP2;ratioP2;P2;SDS_P1;SDS_P2;PMS_P1;PMS_P2;Temp;Humidity;BMP_temperature;BMP_pressure;BME280_temperature;BME280_humidity;BME280_pressure;Samples;Min_cycle;Max_cycle;Signal;HPM_P1;HPM_P2
2023/03/27 00:02:17;;;;;;;;;;;;;;;4.08;76.58;101461.81;5021443;28;19924;-63
2023/03/27 00:04:43;;;;;;;;;;;;;;;4.10;76.55;101459.91;5019572;28;19923;-63
2023/03/27 00:07:08;;;;;;;;;;;;;;;4.11;76.56;101459.78;5022759;28;20382;-63
2023/03/27 00:09:33;;;;;;;;;;;;;;;4.14;76.85;101472.72;5018890;28;19924;-63
2023/03/27 00:11:59;;;;;;;;;;;;;;;4.16;76.66;101472.59;5027600;28;19913;-63
2023/03/27 00:14:24;;;;;;;;;;;;;;;4.16;76.64;101477.84;5019300;28;20010;-63
2023/03/27 00:16:51;;;;;;;;;;;;;;;4.14;76.76;101482.38;5028095;28;20482;-63
2023/03/27 00:19:16;;;;;;;;;;;;;;;4.12;76.82;101490.38;5028946;28;19939;-63
2023/03/27 00:21:43;;;;;;;;;;;;;;;4.10;76.62;101496.72;5026161;28;20359;-63
2023/03/27 00:24:09;;;;;;;;;;;;;;;4.07;77.01;101505.66;5027141;28;20027;-63
2023/03/27 00:26:34;;;;;;;;;;;;;;;4.03;76.96;101510.28;5022228;28;20381;-63
2023/03/27 00:28:59;;;;;;;;;;;;;;;4.00;77.04;101513.13;5024353;28;19913;-62
2023/03/27 00:31:24;;;;;;;;;;;;;;;3.96;76.92;101513.47;5008707;28;19925;-62
2023/03/27 00:33:50;;;;;;;;;;;;;;;3.92;77.31;101514.66;5024576;28;19983;-62
2023/03/27 00:36:15;;;;;;;;;;;;;;;3.88;77.19;101519.28;5025138;28;20429;-63
2023/03/27 00:38:42;;;;;;;;;;;;;;;3.88;77.39;101516.66;5026918;28;19917;-63
2023/03/27 00:41:07;;;;;;;;;;;;;;;3.88;77.28;101521.91;5023288;28;20579;-63
2023/03/27 00:43:34;;;;;;;;;;;;;;;3.88;77.43;101528.97;5018370;28;19918;-63
2023/03/27 00:46:14;;;;;;;;;;;;;;;3.86;77.51;101529.06;5020238;28;19999;-64
2023/03/27 00:48:39;;;;;;;;;;;;;;;3.84;77.67;101527.50;5026182;28;19923;-64
2023/03/27 00:51:05;;;;;;;;;;;;;;;3.82;77.45;101538.13;5020266;28;19917;-63
2023/03/27 00:53:31;;;;;;;;;;;;;;;3.83;77.84;101534.53;5023520;28;20003;-62
2023/03/27 00:56:01;;;;;;;;;;;;;;;3.87;77.97;101543.03;5030358;28;20015;-63
2023/03/27 00:58:28;;;;;;;;;;;;;;;3.89;78.14;101549.88;5022466;28;19921;-64
2023/03/27 01:00:55;;;;;;;;;;;;;;;3.93;78.22;101548.69;5021870;28;19924;-63
2023/03/27 01:03:21;;;;;;;;;;;;;;;3.98;78.76;101561.50;5018842;28;19971;-63
2023/03/27 01:05:47;;;;;;;;;;;;;;;4.03;78.97;101560.19;5021795;28;19920;-63
2023/03/27 01:08:14;;;;;;;;;;;;;;;4.08;79.39;101565.16;5024257;28;20565;-63
2023/03/27 01:10:51;;;;;;;;;;;;;;;4.11;79.39;101553.59;5024514;28;20015;-63
2023/03/27 01:13:32;;;;;;;;;;;;;;;4.15;79.52;101560.28;5022005;28;20397;-64
2023/03/27 01:16:03;;;;;;;;;;;;;;;4.17;79.79;101559.22;5024847;28;19921;-63
2023/03/27 01:18:47;;;;;;;;;;;;;;;4.17;79.86;101550.50;5026408;28;19921;-63
2023/03/27 01:21:12;;;;;;;;;;;;;;;4.12;80.28;101552.63;5024775;28;20477;-63
2023/03/27 01:23:41;;;;;;;;;;;;;;;3.99;79.94;101550.03;5022180;28;19947;-63
2023/03/27 01:26:06;;;;;;;;;;;;;;;3.92;80.27;101560.16;5025288;28;20550;-63
2023/03/27 01:28:41;;;;;;;;;;;;;;;3.88;80.23;101561.31;5028570;28;19928;-64
2023/03/27 01:31:14;;;;;;;;;;;;;;;3.86;80.72;101565.00;5019554;28;19920;-63
2023/03/27 01:33:58;;;;;;;;;;;;;;;3.81;80.80;101572.38;5021296;28;19913;-64
2023/03/27 01:36:39;;;;;;;;;;;;;;;3.74;80.83;101580.69;5018027;28;19921;-63
2023/03/27 01:39:29;;;;;;;;;;;;;;;3.66;80.90;101579.53;5021317;28;19913;-63
2023/03/27 01:41:55;;;;;;;;;;;;;;;3.58;81.09;101587.97;5030386;28;19958;-63
2023/03/27 01:44:25;;;;;;;;;;;;;;;3.48;81.41;101583.47;5026848;28;20016;-64
2023/03/27 01:47:08;;;;;;;;;;;;;;;3.32;81.55;101592.41;5021413;28;19924;-64
2023/03/27 01:49:38;;;;;;;;;;;;;;;3.26;81.78;101590.19;5020579;28;19935;-63
2023/03/27 01:52:07;;;;;;;;;;;;;;;3.25;81.91;101585.91;5025156;28;20436;-63
2023/03/27 01:54:37;;;;;;;;;;;;;;;3.24;82.25;101584.22;5025123;28;20397;-63
2023/03/27 01:57:16;;;;;;;;;;;;;;;3.22;82.29;101585.28;5023399;28;19917;-63
2023/03/27 01:59:44;;;;;;;;;;;;;;;3.22;82.46;101593.13;5021328;28;19949;-63
2023/03/27 02:02:16;;;;;;;;;;;;;;;3.23;82.73;101592.19;5021925;28;20012;-62
2023/03/27 02:04:50;;;;;;;;;;;;;;;3.24;82.67;101599.97;5022047;28;20587;-63
2023/03/27 02:07:20;;;;;;;;;;;;;;;3.24;83.12;101602.59;5022521;28;20434;-63
2023/03/27 02:09:52;;;;;;;;;;;;;;;3.23;83.38;101595.66;5026439;28;19921;-64
2023/03/27 02:12:24;;;;;;;;;;;;;;;3.23;82.95;101605.31;5027233;28;19991;-63
2023/03/27 02:14:53;;;;;;;;;;;;;;;3.19;83.42;101609.94;5031763;28;19961;-63
2023/03/27 02:17:19;;;;;;;;;;;;;;;3.15;83.24;101623.34;5023821;28;20775;-63
2023/03/27 02:19:59;;;;;;;;;;;;;;;3.09;83.36;101624.59;5028897;28;20375;-63
2023/03/27 02:22:24;;;;;;;;;;;;;;;3.03;83.42;101625.88;5027470;28;19921;-63
2023/03/27 02:24:53;;;;;;;;;;;;;;;2.98;83.72;101630.59;5029882;28;19917;-63
2023/03/27 02:27:25;;;;;;;;;;;;;;;2.93;83.77;101626.59;5031016;28;20020;-62
2023/03/27 02:29:50;;;;;;;;;;;;;;;2.87;83.70;101634.84;5025693;28;19968;-62
2023/03/27 02:32:16;;;;;;;;;;;;;;;2.80;83.77;101632.63;5028166;28;19940;-63
2023/03/27 02:34:50;;;;;;;;;;;;;;;2.77;83.78;101637.25;5026122;28;19925;-63
2023/03/27 02:37:24;;;;;;;;;;;;;;;2.76;83.86;101640.81;5024512;28;19920;-63
2023/03/27 02:39:58;;;;;;;;;;;;;;;2.74;83.90;101640.06;5023340;28;20016;-63
2023/03/27 02:42:31;;;;;;;;;;;;;;;2.70;83.97;101647.28;5024685;28;19959;-63
2023/03/27 02:45:07;;;;;;;;;;;;;;;2.64;84.20;101641.63;5016987;28;19917;-63
2023/03/27 02:47:36;;;;;;;;;;;;;;;2.59;84.06;101649.75;5020322;28;19913;-63
2023/03/27 02:50:11;;;;;;;;;;;;;;;2.58;84.27;101650.69;5028089;28;19918;-62
2023/03/27 02:52:40;;;;;;;;;;;;;;;2.60;84.06;101661.09;5026219;28;19967;-62
2023/03/27 02:55:26;;;;;;;;;;;;;;;2.62;84.42;101659.22;5027328;28;20314;-63
2023/03/27 02:57:55;;;;;;;;;;;;;;;2.66;84.41;101661.56;5018234;28;19931;-63
2023/03/27 03:00:24;;;;;;;;;;;;;;;2.72;84.68;101661.16;5021101;28;20383;-63
2023/03/27 03:03:19;;;;;;;;;;;;;;;2.76;84.47;101667.03;5026981;28;19952;-62
2023/03/27 03:05:45;;;;;;;;;;;;;;;2.78;84.88;101668.63;5014648;28;20382;-63
2023/03/27 03:08:10;;;;;;;;;;;;;;;2.81;84.59;101675.44;5028975;28;19921;-63
2023/03/27 03:10:41;;;;;;;;;;;;;;;2.83;84.54;101680.59;5030023;28;19914;-63
2023/03/27 03:13:07;;;;;;;;;;;;;;;2.84;84.38;101685.72;5025188;28;20015;-63
2023/03/27 03:15:32;;;;;;;;;;;;;;;2.84;84.43;101684.88;5008693;28;19932;-63
2023/03/27 03:17:58;;;;;;;;;;;;;;;2.82;84.47;101692.00;5027999;28;20003;-63
2023/03/27 03:20:23;;;;;;;;;;;;;;;2.81;84.45;101696.41;5030184;28;20370;-63
2023/03/27 03:22:48;;;;;;;;;;;;;;;2.79;84.39;101696.53;5023274;28;19918;-63
2023/03/27 03:25:14;;;;;;;;;;;;;;;2.78;84.32;101702.72;5028304;28;19968;-63
2023/03/27 03:27:40;;;;;;;;;;;;;;;2.78;84.51;101704.50;5024318;28;20366;-63
2023/03/27 03:30:06;;;;;;;;;;;;;;;2.80;84.40;101705.22;5027350;28;20004;-63
2023/03/27 03:32:32;;;;;;;;;;;;;;;2.80;84.47;101703.44;5027819;28;19928;-63
2023/03/27 03:35:00;;;;;;;;;;;;;;;2.80;84.46;101708.69;5026964;28;19928;-62
2023/03/27 03:37:27;;;;;;;;;;;;;;;2.81;84.37;101714.78;5026622;28;19925;-63
2023/03/27 03:39:52;;;;;;;;;;;;;;;2.82;84.28;101720.88;5026024;28;19921;-63
2023/03/27 03:42:17;;;;;;;;;;;;;;;2.83;84.43;101727.78;5021288;28;19917;-63
2023/03/27 03:44:42;;;;;;;;;;;;;;;2.82;84.58;101721.72;5025308;28;20387;-63
2023/03/27 03:47:07;;;;;;;;;;;;;;;2.82;84.40;101726.13;5027517;28;19960;-63
2023/03/27 03:49:33;;;;;;;;;;;;;;;2.80;84.28;101729.69;5026438;28;20402;-64
2023/03/27 03:51:58;;;;;;;;;;;;;;;2.80;84.21;101732.31;5027033;28;19913;-63
2023/03/27 03:54:23;;;;;;;;;;;;;;;2.80;84.27;101737.53;5024872;28;20071;-63
2023/03/27 03:56:48;;;;;;;;;;;;;;;2.79;84.56;101735.03;5024000;28;19921;-63
2023/03/27 03:59:13;;;;;;;;;;;;;;;2.79;84.46;101745.50;5025833;28;19947;-64
2023/03/27 04:01:39;;;;;;;;;;;;;;;2.77;84.51;101743.00;5029802;28;19971;-63
2023/03/27 04:04:06;;;;;;;;;;;;;;;2.74;84.28;101753.69;5021973;28;20376;-63
2023/03/27 04:06:36;;;;;;;;;;;;;;;2.71;84.59;101758.28;5012726;28;20056;-63
2023/03/27 04:09:01;;;;;;;;;;;;;;;2.67;84.45;101762.03;5017278;28;19917;-63
2023/03/27 04:11:26;;;;;;;;;;;;;;;2.66;84.44;101761.19;5027966;28;19924;-63
2023/03/27 04:13:52;;;;;;;;;;;;;;;2.66;84.55;101765.59;5020383;28;19924;-63
2023/03/27 04:16:17;;;;;;;;;;;;;;;2.67;84.52;101768.13;5024998;28;19921;-63
2023/03/27 04:18:42;;;;;;;;;;;;;;;2.66;84.43;101770.84;5025970;28;19917;-63
2023/03/27 04:21:13;;;;;;;;;;;;;;;2.64;84.86;101773.56;5021902;28;20429;-63
2023/03/27 04:23:38;;;;;;;;;;;;;;;2.62;84.78;101780.69;5020394;28;20040;-63
2023/03/27 04:26:04;;;;;;;;;;;;;;;2.56;84.79;101775.81;5022376;28;19953;-63
2023/03/27 04:28:33;;;;;;;;;;;;;;;2.47;84.48;101786.88;5023957;28;19917;-63
2023/03/27 04:30:59;;;;;;;;;;;;;;;2.41;84.42;101795.13;5016744;28;21281;-63
2023/03/27 04:33:24;;;;;;;;;;;;;;;2.35;84.50;101795.50;5027718;28;19957;-63
2023/03/27 04:35:49;;;;;;;;;;;;;;;2.30;84.47;101795.75;5027355;28;19917;-63
2023/03/27 04:38:15;;;;;;;;;;;;;;;2.26;84.55;101803.91;5020334;28;19926;-63
2023/03/27 04:40:48;;;;;;;;;;;;;;;2.23;84.71;101810.19;5022952;28;19924;-63
2023/03/27 04:43:13;;;;;;;;;;;;;;;2.20;84.75;101814.78;5017791;28;19918;-62
2023/03/27 04:45:38;;;;;;;;;;;;;;;2.17;84.79;101816.66;5024701;28;19924;-63
2023/03/27 04:48:04;;;;;;;;;;;;;;;2.17;85.10;101819.25;5023392;28;19913;-63
2023/03/27 04:50:29;;;;;;;;;;;;;;;2.18;85.11;101827.97;5026786;28;20333;-62
2023/03/27 04:52:58;;;;;;;;;;;;;;;2.20;85.19;101826.09;5027076;28;20007;-63
2023/03/27 04:55:25;;;;;;;;;;;;;;;2.19;85.30;101827.03;5026780;28;20345;-62
2023/03/27 04:57:50;;;;;;;;;;;;;;;2.20;85.21;101833.13;5021061;28;19917;-63
2023/03/27 05:00:17;;;;;;;;;;;;;;;2.18;85.17;101828.81;5022266;28;19975;-63
2023/03/27 05:02:43;;;;;;;;;;;;;;;2.14;85.25;101835.19;5018968;28;20399;-63
2023/03/27 05:05:09;;;;;;;;;;;;;;;2.11;85.44;101837.13;5021116;28;19917;-63
2023/03/27 05:07:34;;;;;;;;;;;;;;;2.07;85.64;101841.72;5023974;28;20000;-63
2023/03/27 05:10:00;;;;;;;;;;;;;;;2.03;85.55;101844.63;5021942;28;19948;-62
2023/03/27 05:12:26;;;;;;;;;;;;;;;1.99;85.63;101848.31;5023076;28;19917;-62
2023/03/27 05:14:52;;;;;;;;;;;;;;;1.97;85.48;101853.66;5025642;28;19922;-63
2023/03/27 05:17:17;;;;;;;;;;;;;;;1.95;85.75;101854.69;5026356;28;20508;-63
2023/03/27 05:19:43;;;;;;;;;;;;;;;1.92;85.71;101855.72;5025983;28;19913;-63
2023/03/27 05:22:08;;;;;;;;;;;;;;;1.94;85.81;101855.63;5018485;28;19922;-63
2023/03/27 05:24:34;;;;;;;;;;;;;;;1.90;85.98;101862.81;5024209;28;20352;-62
2023/03/27 05:26:59;;;;;;;;;;;;;;;1.88;86.17;101864.69;5020750;28;19924;-63
2023/03/27 05:29:24;;;;;;;;;;;;;;;1.86;86.37;101867.41;5021101;28;19932;-62
2023/03/27 05:31:50;;;;;;;;;;;;;;;1.88;86.35;101869.09;5019106;28;19983;-63
2023/03/27 05:34:15;;;;;;;;;;;;;;;1.89;86.49;101876.84;5025196;28;20015;-63
2023/03/27 05:36:40;;;;;;;;;;;;;;;1.87;86.54;101876.09;5027177;28;19932;-63
2023/03/27 05:39:05;;;;;;;;;;;;;;;1.86;86.54;101880.50;5028446;28;20413;-63
2023/03/27 05:41:30;;;;;;;;;;;;;;;1.89;86.51;101886.47;5018440;28;20410;-63
2023/03/27 05:43:55;;;;;;;;;;;;;;;1.92;86.56;101887.16;5020674;28;19921;-62
2023/03/27 05:46:21;;;;;;;;;;;;;;;1.96;86.73;101896.50;5028752;28;19921;-63
2023/03/27 05:48:47;;;;;;;;;;;;;;;2.04;87.05;101904.78;5030940;28;19921;-63
2023/03/27 05:51:12;;;;;;;;;;;;;;;2.13;87.15;101919.97;5021934;28;20411;-63
2023/03/27 05:53:38;;;;;;;;;;;;;;;2.22;87.49;101928.19;5028183;28;19940;-63
2023/03/27 05:56:04;;;;;;;;;;;;;;;2.31;87.74;101932.91;5017925;28;19921;-63
2023/03/27 05:58:29;;;;;;;;;;;;;;;2.40;88.49;101940.25;5025189;28;19921;-63
2023/03/27 06:00:54;;;;;;;;;;;;;;;2.42;88.66;101946.22;5028375;28;19913;-63
2023/03/27 06:03:20;;;;;;;;;;;;;;;2.43;88.71;101942.66;5029908;28;19924;-63
2023/03/27 06:05:45;;;;;;;;;;;;;;;2.42;88.60;101930.50;5015787;28;20347;-63
2023/03/27 06:08:10;;;;;;;;;;;;;;;2.39;88.52;101925.44;5024345;28;19917;-63
2023/03/27 06:10:38;;;;;;;;;;;;;;;2.35;88.32;101923.94;5025332;28;19913;-63
2023/03/27 06:13:07;;;;;;;;;;;;;;;2.30;88.35;101915.47;5022921;28;20852;-63
2023/03/27 06:15:33;;;;;;;;;;;;;;;2.26;88.48;101920.06;5029929;28;20388;-63
2023/03/27 06:17:59;;;;;;;;;;;;;;;2.25;88.33;101928.03;5022700;28;19921;-63
2023/03/27 06:20:25;;;;;;;;;;;;;;;2.22;88.46;101933.44;5031568;28;19913;-63
2023/03/27 06:22:51;;;;;;;;;;;;;;;2.21;88.65;101937.00;5028290;28;20041;-63
2023/03/27 06:25:17;;;;;;;;;;;;;;;2.19;88.90;101939.72;5027834;28;19974;-63
2023/03/27 06:27:44;;;;;;;;;;;;;;;2.20;88.95;101941.41;5026619;28;20015;-63
2023/03/27 06:30:10;;;;;;;;;;;;;;;2.20;88.87;101946.63;5029801;28;19921;-62
2023/03/27 06:32:35;;;;;;;;;;;;;;;2.18;89.14;101949.34;5025218;28;19925;-62
2023/03/27 06:35:01;;;;;;;;;;;;;;;2.20;89.15;101949.25;5026613;28;20008;-63
2023/03/27 06:37:26;;;;;;;;;;;;;;;2.20;89.17;101953.66;5026152;28;19918;-63
2023/03/27 06:39:53;;;;;;;;;;;;;;;2.20;89.00;101957.13;5030523;28;20407;-63
2023/03/27 06:42:19;;;;;;;;;;;;;;;2.20;89.16;101962.38;5027192;28;19972;-63
2023/03/27 06:44:44;;;;;;;;;;;;;;;2.26;88.96;101966.41;5025711;28;20590;-63
2023/03/27 06:47:09;;;;;;;;;;;;;;;2.28;89.17;101965.38;5018573;28;19917;-63
2023/03/27 06:49:34;;;;;;;;;;;;;;;2.34;89.46;101965.03;5019069;28;20563;-63
2023/03/27 06:52:00;;;;;;;;;;;;;;;2.38;89.56;101970.94;5029838;28;19917;-63
2023/03/27 06:54:25;;;;;;;;;;;;;;;2.42;89.48;101975.06;5019939;28;20039;-63
2023/03/27 06:56:50;;;;;;;;;;;;;;;2.46;89.64;101973.94;5021899;28;19924;-63
2023/03/27 06:59:16;;;;;;;;;;;;;;;2.49;89.45;101981.63;5025866;28;19925;-62
2023/03/27 07:01:42;;;;;;;;;;;;;;;2.52;89.66;101984.06;5017524;28;19926;-63
2023/03/27 07:04:07;;;;;;;;;;;;;;;2.58;89.67;101988.94;5011787;28;19914;-62
2023/03/27 07:06:32;;;;;;;;;;;;;;;2.62;89.66;101987.00;5011670;28;19913;-63
2023/03/27 07:08:58;;;;;;;;;;;;;;;2.68;89.40;101995.34;5018849;28;19917;-62
2023/03/27 07:11:24;;;;;;;;;;;;;;;2.73;89.30;101998.53;5022766;28;20350;-63
2023/03/27 07:13:49;;;;;;;;;;;;;;;2.82;89.61;102006.78;5031165;28;19920;-63
2023/03/27 07:16:15;;;;;;;;;;;;;;;2.88;89.48;102006.41;5027295;28;19999;-63
2023/03/27 07:18:40;;;;;;;;;;;;;;;2.97;89.40;102003.25;5029644;28;20272;-63
2023/03/27 07:21:07;;;;;;;;;;;;;;;3.02;89.13;102004.66;5029326;28;19920;-63
2023/03/27 07:23:32;;;;;;;;;;;;;;;3.07;89.08;102013.09;5024974;28;20008;-63
2023/03/27 07:25:58;;;;;;;;;;;;;;;3.04;88.77;102010.66;5023709;28;20031;-63
2023/03/27 07:28:23;;;;;;;;;;;;;;;3.06;88.41;102021.06;5026695;28;20370;-63
2023/03/27 07:30:48;;;;;;;;;;;;;;;3.00;88.15;102017.03;5026717;28;19929;-63
2023/03/27 07:33:13;;;;;;;;;;;;;;;3.00;88.45;102018.81;5027832;28;19917;-63
2023/03/27 07:35:46;;;;;;;;;;;;;;;3.07;88.28;102026.22;5029039;28;20564;-63
2023/03/27 07:38:12;;;;;;;;;;;;;;;3.18;88.15;102022.94;5026336;28;19913;-63
2023/03/27 07:40:38;;;;;;;;;;;;;;;3.26;88.01;102025.09;5019446;28;20363;-63
2023/03/27 07:43:05;;;;;;;;;;;;;;;3.31;87.85;102026.50;5023628;28;20011;-62
2023/03/27 07:45:31;;;;;;;;;;;;;;;3.41;87.72;102027.59;5020618;28;19992;-63
2023/03/27 07:48:03;;;;;;;;;;;;;;;3.50;87.28;102020.09;5021176;28;20008;-63
2023/03/27 07:50:28;;;;;;;;;;;;;;;3.55;86.96;102024.13;5011004;28;20287;-63
2023/03/27 07:52:53;;;;;;;;;;;;;;;3.66;86.85;102028.69;5025039;28;19913;-63
2023/03/27 07:55:18;;;;;;;;;;;;;;;3.78;86.79;102025.31;5028565;28;19931;-63
2023/03/27 07:57:45;;;;;;;;;;;;;;;3.96;86.47;102029.38;5019175;28;19914;-63
2023/03/27 08:00:10;;;;;;;;;;;;;;;4.02;86.07;102034.22;5025254;28;19913;-63
2023/03/27 08:02:36;;;;;;;;;;;;;;;4.14;86.32;102044.91;5017928;28;19925;-63
2023/03/27 08:05:04;;;;;;;;;;;;;;;4.23;86.15;102044.31;5028039;28;19914;-63
2023/03/27 08:07:29;;;;;;;;;;;;;;;4.29;85.66;102041.25;5025825;28;19948;-63
2023/03/27 08:09:56;;;;;;;;;;;;;;;4.31;85.04;102036.75;5026221;28;19947;-63
2023/03/27 08:12:21;;;;;;;;;;;;;;;4.37;84.78;102046.88;5028101;28;19949;-63
2023/03/27 08:14:47;;;;;;;;;;;;;;;4.47;84.97;102045.31;5032260;28;20405;-63
2023/03/27 08:17:12;;;;;;;;;;;;;;;4.63;84.60;102046.00;5025338;28;19917;-63
2023/03/27 08:19:37;;;;;;;;;;;;;;;4.79;84.28;102053.69;5020809;28;19917;-63
2023/03/27 08:22:03;;;;;;;;;;;;;;;4.92;83.84;102051.09;5013679;28;19997;-63
2023/03/27 08:24:28;;;;;;;;;;;;;;;5.03;83.25;102045.94;5021746;28;19917;-64
2023/03/27 08:26:53;;;;;;;;;;;;;;;5.16;82.90;102061.72;5023072;28;20044;-63
2023/03/27 08:29:19;;;;;;;;;;;;;;;5.18;81.47;102060.66;5021454;28;20017;-63
2023/03/27 08:31:44;;;;;;;;;;;;;;;5.15;80.87;102063.50;5028730;28;19966;-64
2023/03/27 08:34:10;;;;;;;;;;;;;;;5.18;80.42;102071.19;5023730;28;20069;-63
2023/03/27 08:36:35;;;;;;;;;;;;;;;5.21;79.28;102070.16;5027932;28;20279;-64
2023/03/27 08:39:01;;;;;;;;;;;;;;;5.35;79.90;102069.19;5026842;28;19964;-63
2023/03/27 08:41:29;;;;;;;;;;;;;;;5.46;79.76;102072.75;5028707;28;19913;-63
2023/03/27 08:43:57;;;;;;;;;;;;;;;5.50;78.93;102076.06;5021067;28;20055;-64
2023/03/27 08:46:27;;;;;;;;;;;;;;;5.42;78.41;102075.72;5012125;28;20481;-64
2023/03/27 08:48:56;;;;;;;;;;;;;;;5.44;77.69;102076.44;5019566;28;20056;-63
2023/03/27 08:51:24;;;;;;;;;;;;;;;5.46;77.05;102082.47;5021950;28;19944;-63
2023/03/27 08:53:53;;;;;;;;;;;;;;;5.50;76.71;102090.06;5027945;28;19967;-63
2023/03/27 08:56:19;;;;;;;;;;;;;;;5.51;76.44;102093.53;5024588;28;19995;-63
2023/03/27 08:58:45;;;;;;;;;;;;;;;5.54;75.95;102096.81;5028417;28;19920;-63
2023/03/27 09:01:28;;;;;;;;;;;;;;;5.72;76.26;102099.06;5017908;28;19918;-63
2023/03/27 09:04:12;;;;;;;;;;;;;;;5.88;76.22;102097.91;5026797;28;19970;-63
2023/03/27 09:06:52;;;;;;;;;;;;;;;6.17;76.54;102095.00;5022120;28;19995;-63
2023/03/27 09:09:29;;;;;;;;;;;;;;;6.44;76.47;102107.97;5024911;28;19925;-64
2023/03/27 09:12:11;;;;;;;;;;;;;;;6.64;75.89;102135.50;5024328;28;19961;-64
2023/03/27 09:14:39;;;;;;;;;;;;;;;6.40;74.54;102152.22;5021041;28;19928;-63
2023/03/27 09:17:14;;;;;;;;;;;;;;;5.93;73.82;102162.66;5019155;28;19959;-63
2023/03/27 09:19:42;;;;;;;;;;;;;;;5.35;74.20;102164.03;5010917;28;19925;-63
2023/03/27 09:22:14;;;;;;;;;;;;;;;4.97;75.16;102165.66;5018945;28;19932;-63
2023/03/27 09:24:40;;;;;;;;;;;;;;;4.71;75.47;102147.25;5022804;28;19917;-63
2023/03/27 09:27:17;;;;;;;;;;;;;;;4.51;76.44;102145.91;5022384;28;19917;-63
2023/03/27 09:29:42;;;;;;;;;;;;;;;4.37;77.14;102151.25;5021663;28;20374;-63
2023/03/27 09:32:13;;;;;;;;;;;;;;;4.27;77.51;102145.69;5019088;28;20006;-63
2023/03/27 09:34:38;;;;;;;;;;;;;;;4.26;78.43;102147.50;5025849;28;19921;-63
2023/03/27 09:37:09;;;;;;;;;;;;;;;4.35;79.29;102151.34;5015106;28;19918;-63
2023/03/27 09:39:37;;;;;;;;;;;;;;;4.50;79.97;102145.06;5024467;28;20516;-63
2023/03/27 09:42:08;;;;;;;;;;;;;;;4.65;80.58;102151.16;5022549;28;19945;-63
2023/03/27 09:44:35;;;;;;;;;;;;;;;4.81;80.81;102146.53;5026968;28;19919;-63
2023/03/27 09:47:05;;;;;;;;;;;;;;;4.89;81.37;102157.41;5016810;28;19940;-63
2023/03/27 09:49:30;;;;;;;;;;;;;;;5.08;81.73;102151.78;5016115;28;19925;-64
2023/03/27 09:51:58;;;;;;;;;;;;;;;5.27;81.36;102156.66;5022698;28;20004;-64
2023/03/27 09:54:24;;;;;;;;;;;;;;;5.40;81.41;102151.38;5017359;28;19922;-64
2023/03/27 09:56:52;;;;;;;;;;;;;;;5.55;81.59;102150.34;5022940;28;19962;-64
2023/03/27 09:59:18;;;;;;;;;;;;;;;5.87;81.20;102158.63;5014835;28;19925;-64
2023/03/27 10:01:47;;;;;;;;;;;;;;;6.04;80.85;102160.09;5019465;28;19979;-64
2023/03/27 10:04:17;;;;;;;;;;;;;;;6.26;80.38;102160.25;5017592;28;19924;-63
2023/03/27 10:06:43;;;;;;;;;;;;;;;6.56;80.26;102149.28;5023599;28;20581;-63
2023/03/27 10:09:21;;;;;;;;;;;;;;;6.82;79.06;102163.19;5022074;28;19917;-65
2023/03/27 10:11:47;;;;;;;;;;;;;;;6.86;78.39;102161.19;5024806;28;19956;-64
2023/03/27 10:14:15;;;;;;;;;;;;;;;6.95;77.61;102165.78;5023708;28;20014;-64
2023/03/27 10:16:41;;;;;;;;;;;;;;;6.92;76.77;102155.44;5022961;28;19929;-64
2023/03/27 10:19:17;;;;;;;;;;;;;;;6.83;76.63;102163.09;5014087;28;19947;-64
2023/03/27 10:21:42;;;;;;;;;;;;;;;6.75;75.48;102164.63;5022310;28;20003;-64
2023/03/27 10:24:18;;;;;;;;;;;;;;;6.70;74.93;102161.47;5023324;28;20343;-64
2023/03/27 10:26:45;;;;;;;;;;;;;;;6.85;74.13;102160.34;5025798;28;19913;-64
2023/03/27 10:29:19;;;;;;;;;;;;;;;7.05;73.57;102164.13;5028032;28;19952;-64
2023/03/27 10:31:48;;;;;;;;;;;;;;;7.26;72.30;102170.44;5026591;28;19932;-64
2023/03/27 10:34:29;;;;;;;;;;;;;;;7.49;71.47;102168.66;5026036;28;20052;-64
2023/03/27 10:36:54;;;;;;;;;;;;;;;7.76;71.19;102190.34;5022658;28;19913;-64
2023/03/27 10:39:24;;;;;;;;;;;;;;;7.87;70.57;102193.97;5023259;28;19917;-64
2023/03/27 10:41:49;;;;;;;;;;;;;;;7.65;70.19;102216.78;5026181;28;20330;-64
2023/03/27 10:44:17;;;;;;;;;;;;;;;7.43;70.68;102220.19;5020491;28;19920;-64
2023/03/27 10:46:43;;;;;;;;;;;;;;;7.19;70.88;102223.84;5026481;28;20474;-64
2023/03/27 10:49:20;;;;;;;;;;;;;;;6.93;71.03;102231.91;5022539;28;19914;-64
2023/03/27 10:51:46;;;;;;;;;;;;;;;6.71;71.97;102240.56;5022184;28;19932;-64
2023/03/27 10:54:19;;;;;;;;;;;;;;;6.50;72.51;102223.63;5027117;28;20456;-64
2023/03/27 10:56:55;;;;;;;;;;;;;;;6.35;72.83;102225.56;5020762;28;19925;-64
2023/03/27 10:59:34;;;;;;;;;;;;;;;6.26;73.44;102228.84;5027549;28;19952;-64
2023/03/27 11:02:10;;;;;;;;;;;;;;;6.17;73.39;102230.34;5009347;28;19921;-64
2023/03/27 11:04:35;;;;;;;;;;;;;;;6.11;73.87;102233.44;5019624;28;20402;-64
2023/03/27 11:07:02;;;;;;;;;;;;;;;6.22;75.38;102235.28;5015240;28;19987;-64
2023/03/27 11:09:33;;;;;;;;;;;;;;;6.41;75.92;102229.56;5018106;28;19917;-64
2023/03/27 11:12:00;;;;;;;;;;;;;;;6.57;76.43;102229.31;5020759;28;19920;-64
2023/03/27 11:14:31;;;;;;;;;;;;;;;6.69;76.23;102226.63;5024922;28;19999;-64
2023/03/27 11:17:02;;;;;;;;;;;;;;;6.81;76.15;102225.72;5026380;28;19920;-64
2023/03/27 11:19:31;;;;;;;;;;;;;;;6.95;76.09;102219.44;5027552;28;19979;-64
2023/03/27 11:22:01;;;;;;;;;;;;;;;7.07;75.50;102218.53;5023885;28;20006;-64
2023/03/27 11:24:42;;;;;;;;;;;;;;;7.20;75.36;102218.44;5021713;28;19917;-64
2023/03/27 11:27:19;;;;;;;;;;;;;;;7.41;75.55;102216.00;5020667;28;20020;-64
2023/03/27 11:29:49;;;;;;;;;;;;;;;7.59;74.52;102211.97;5022013;28;19913;-64
2023/03/27 11:32:23;;;;;;;;;;;;;;;7.81;74.28;102207.69;5023602;28;20321;-63
2023/03/27 11:34:58;;;;;;;;;;;;;;;8.10;74.46;102215.97;5014349;28;20383;-64
2023/03/27 11:37:30;;;;;;;;;;;;;;;8.38;73.74;102219.00;5019202;28;19940;-64
2023/03/27 11:40:08;;;;;;;;;;;;;;;8.53;72.68;102216.06;5024514;28;20389;-64
2023/03/27 11:42:37;;;;;;;;;;;;;;;8.57;71.28;102214.84;5024743;28;19927;-64
2023/03/27 11:45:06;;;;;;;;;;;;;;;8.50;68.68;102229.56;5022105;28;19928;-64
2023/03/27 11:47:31;;;;;;;;;;;;;;;8.20;66.14;102231.00;5025982;28;19913;-64
2023/03/27 11:50:10;;;;;;;;;;;;;;;8.01;66.04;102226.31;5015469;28;19917;-64
2023/03/27 11:52:41;;;;;;;;;;;;;;;7.88;65.66;102235.31;5020675;28;19927;-64
2023/03/27 11:55:07;;;;;;;;;;;;;;;7.94;65.04;102235.69;5023162;28;20359;-64
2023/03/27 11:57:38;;;;;;;;;;;;;;;7.93;64.93;102241.94;5019053;28;19936;-64
2023/03/27 12:00:20;;;;;;;;;;;;;;;8.02;64.40;102241.22;5012387;28;19914;-64
2023/03/27 12:03:05;;;;;;;;;;;;;;;8.18;63.85;102232.94;5013773;28;19920;-64
2023/03/27 12:05:30;;;;;;;;;;;;;;;8.36;63.53;102234.13;5017149;28;19921;-64
2023/03/27 12:08:15;;;;;;;;;;;;;;;8.39;62.31;102248.97;5022179;28;20307;-64
2023/03/27 12:10:42;;;;;;;;;;;;;;;8.42;62.28;102235.47;5013415;28;19971;-64
2023/03/27 12:13:16;;;;;;;;;;;;;;;8.53;62.43;102234.59;5025730;28;19960;-64
2023/03/27 12:15:50;;;;;;;;;;;;;;;8.60;61.97;102236.63;5026618;28;19964;-64
2023/03/27 12:18:24;;;;;;;;;;;;;;;8.70;61.74;102228.81;5019907;28;19913;-64
2023/03/27 12:21:09;;;;;;;;;;;;;;;8.79;62.06;102241.28;5019211;28;19975;-64
2023/03/27 12:23:45;;;;;;;;;;;;;;;8.85;61.93;102235.50;5025706;28;19959;-64
2023/03/27 12:26:11;;;;;;;;;;;;;;;8.65;61.94;102247.69;5019674;28;19967;-64
2023/03/27 12:28:42;;;;;;;;;;;;;;;8.56;61.86;102245.78;5025535;28;19921;-64
2023/03/27 12:31:24;;;;;;;;;;;;;;;8.47;62.47;102237.75;5026262;28;19923;-64
2023/03/27 12:33:55;;;;;;;;;;;;;;;8.53;63.35;102237.25;5021049;28;20573;-63
2023/03/27 12:36:23;;;;;;;;;;;;;;;8.72;63.12;102242.75;5016322;28;19956;-64
2023/03/27 12:38:50;;;;;;;;;;;;;;;8.83;63.17;102236.59;5022038;28;20649;-63
2023/03/27 12:41:19;;;;;;;;;;;;;;;8.81;61.62;102241.16;5025291;28;19921;-64
2023/03/27 12:43:46;;;;;;;;;;;;;;;8.89;60.78;102244.03;5020002;28;19951;-64
2023/03/27 12:46:11;;;;;;;;;;;;;;;9.14;59.73;102235.75;5023074;28;20405;-64
2023/03/27 12:48:53;;;;;;;;;;;;;;;9.17;57.87;102242.59;5023218;28;19925;-64
2023/03/27 12:51:19;;;;;;;;;;;;;;;9.28;56.69;102248.72;5026120;28;19925;-63
2023/03/27 12:53:46;;;;;;;;;;;;;;;9.57;56.34;102245.44;5022547;28;20438;-64
2023/03/27 12:56:23;;;;;;;;;;;;;;;9.78;55.88;102250.69;5025700;28;20341;-64